createdAt,value
2019-03-24T00:03:29.787Z,6.90
2019-03-24T00:08:32.375Z,6.23
2019-03-24T00:13:34.586Z,6.03
2019-03-24T00:18:37.093Z,6.77
2019-03-24T00:23:40.625Z,6.60
2019-03-24T00:28:42.900Z,6.40
2019-03-24T00:33:46.533Z,6.60
2019-03-24T00:38:48.921Z,7.03
2019-03-24T00:43:52.620Z,7.57
2019-03-24T00:48:55.040Z,6.57
2019-03-24T00:53:57.639Z,6.00
2019-03-24T00:58:59.973Z,5.97
2019-03-24T01:04:02.632Z,6.17
2019-03-24T01:09:06.610Z,6.00
2019-03-24T01:14:09.118Z,7.23
2019-03-24T01:19:11.415Z,6.57
2019-03-24T01:24:13.785Z,6.63
2019-03-24T01:29:16.721Z,6.80
2019-03-24T01:34:19.492Z,5.83
2019-03-24T01:39:22.179Z,6.20
2019-03-24T01:44:25.534Z,8.23
2019-03-24T01:49:28.010Z,5.97
2019-03-24T01:54:30.301Z,6.77
2019-03-24T01:59:32.859Z,6.57
2019-03-24T02:04:35.171Z,6.50
2019-03-24T02:09:38.092Z,6.07
2019-03-24T02:14:42.077Z,6.27
2019-03-24T02:19:45.678Z,7.07
2019-03-24T02:24:48.583Z,6.80
2019-03-24T02:29:51.764Z,6.43
2019-03-24T02:34:55.453Z,6.43
2019-03-24T02:39:57.943Z,6.70
2019-03-24T02:45:00.461Z,7.00
2019-03-24T02:50:03.810Z,7.03
2019-03-24T02:55:06.999Z,7.90
2019-03-24T03:00:09.577Z,6.80
2019-03-24T03:05:11.973Z,6.70
2019-03-24T03:10:14.980Z,6.97
2019-03-24T03:15:18.718Z,5.90
2019-03-24T03:20:21.180Z,6.57
2019-03-24T03:25:24.294Z,6.90
2019-03-24T03:30:27.335Z,6.97
2019-03-24T03:35:30.663Z,7.73
2019-03-24T03:40:33.081Z,6.77
2019-03-24T03:45:35.383Z,7.10
2019-03-24T03:50:37.944Z,6.63
2019-03-24T03:55:40.505Z,7.13
2019-03-24T04:00:43.509Z,7.43
2019-03-24T04:05:45.936Z,6.97
2019-03-24T04:10:48.666Z,6.30
2019-03-24T04:15:56.789Z,7.73
2019-03-24T04:20:59.691Z,7.60
2019-03-24T04:26:02.095Z,7.90
2019-03-24T04:31:04.469Z,7.33
2019-03-24T04:36:06.814Z,7.13
2019-03-24T04:41:10.163Z,7.27
2019-03-24T04:46:12.975Z,7.53
2019-03-24T04:51:15.538Z,6.57
2019-03-24T04:56:17.845Z,7.50
2019-03-24T05:01:20.357Z,7.43
2019-03-24T05:06:23.004Z,7.93
2019-03-24T05:11:25.428Z,7.30
2019-03-24T05:16:29.051Z,7.83
2019-03-24T05:21:31.566Z,7.73
2019-03-24T05:26:34.937Z,7.37
2019-03-24T05:31:37.538Z,7.90
2019-03-24T05:36:41.055Z,7.57
2019-03-24T05:41:43.542Z,8.43
2019-03-24T05:46:45.830Z,8.53
2019-03-24T05:51:48.385Z,9.47
2019-03-24T05:56:50.755Z,8.47
2019-03-24T06:01:53.644Z,7.80
2019-03-24T06:06:56.552Z,8.77
2019-03-24T06:11:59.475Z,9.03
2019-03-24T06:17:01.952Z,8.03
2019-03-24T06:22:04.546Z,8.20
2019-03-24T06:27:07.232Z,7.70
2019-03-24T06:32:09.519Z,8.53
2019-03-24T06:37:12.327Z,7.87
2019-03-24T06:42:27.700Z,7.87
2019-03-24T06:47:36.931Z,7.17
2019-03-24T06:52:39.223Z,7.47
2019-03-24T06:57:41.469Z,7.43
2019-03-24T07:02:43.868Z,7.67
2019-03-24T07:07:46.386Z,7.77
2019-03-24T07:12:51.420Z,7.20
2019-03-24T07:17:53.954Z,7.40
2019-03-24T07:22:56.158Z,8.80
2019-03-24T07:27:58.621Z,7.47
2019-03-24T07:33:01.013Z,9.30
2019-03-24T07:38:04.333Z,7.93
2019-03-24T07:43:08.876Z,7.83
2019-03-24T07:48:18.947Z,9.13
2019-03-24T07:53:16.319Z,8.20
2019-03-24T07:58:19.204Z,8.83
2019-03-24T08:03:22.964Z,7.90
2019-03-24T08:08:25.640Z,8.20
2019-03-24T08:13:27.943Z,8.70
2019-03-24T08:18:30.447Z,6.60
2019-03-24T08:23:32.975Z,7.80
2019-03-24T08:28:36.320Z,7.70
2019-03-24T08:33:38.585Z,6.20
2019-03-24T08:38:40.861Z,5.90
2019-03-24T08:43:43.251Z,6.27
2019-03-24T08:48:46.053Z,6.37
2019-03-24T08:53:48.359Z,7.47
2019-03-24T08:58:50.765Z,5.47
2019-03-24T09:03:53.539Z,6.17
2019-03-24T09:08:56.679Z,5.20
2019-03-24T09:13:59.017Z,5.97
2019-03-24T09:19:01.288Z,5.23
2019-03-24T09:24:04.058Z,5.07
2019-03-24T09:29:06.384Z,5.47
2019-03-24T09:34:11.200Z,5.30
2019-03-24T09:39:14.507Z,5.50
2019-03-24T09:44:18.327Z,5.20
2019-03-24T09:49:20.629Z,4.73
2019-03-24T09:54:23.212Z,5.40
2019-03-24T09:59:25.757Z,5.13
2019-03-24T10:04:27.964Z,4.93
2019-03-24T10:09:30.672Z,5.00
2019-03-24T10:14:33.694Z,4.97
2019-03-24T10:19:37.596Z,5.00
2019-03-24T10:24:40.180Z,4.80
2019-03-24T10:29:42.773Z,4.20
2019-03-24T10:34:45.055Z,4.57
2019-03-24T10:39:47.730Z,4.87
2019-03-24T10:44:50.186Z,4.77
2019-03-24T10:49:54.194Z,4.10
2019-03-24T10:54:56.543Z,5.00
2019-03-24T11:00:01.487Z,4.40
2019-03-24T11:05:04.714Z,4.27
2019-03-24T11:10:07.182Z,4.43
2019-03-24T11:15:11.431Z,3.93
2019-03-24T11:20:13.621Z,3.73
2019-03-24T11:25:16.336Z,4.33
2019-03-24T11:30:18.854Z,4.90
2019-03-24T11:35:21.244Z,5.23
2019-03-24T11:40:23.642Z,5.03
2019-03-24T11:45:26.240Z,4.33
2019-03-24T11:50:29.767Z,4.77
2019-03-24T11:55:32.205Z,5.03
2019-03-24T12:00:37.814Z,5.47
2019-03-24T12:05:40.047Z,5.63
2019-03-24T12:10:43.166Z,5.40
2019-03-24T12:15:45.509Z,4.37
2019-03-24T12:20:47.747Z,3.30
2019-03-24T12:25:50.350Z,3.30
2019-03-24T12:30:53.205Z,3.57
2019-03-24T12:35:55.602Z,3.60
2019-03-24T12:40:58.025Z,4.43
2019-03-24T12:46:03.992Z,4.00
2019-03-24T12:51:06.541Z,3.73
2019-03-24T12:56:08.722Z,4.97
2019-03-24T13:01:10.974Z,4.43
2019-03-24T13:06:14.386Z,4.92
2019-03-24T13:11:16.839Z,4.60
2019-03-24T13:16:23.157Z,4.90
2019-03-24T13:21:28.221Z,4.83
2019-03-24T13:26:30.511Z,4.63
2019-03-24T13:31:32.967Z,4.67
2019-03-24T13:36:35.960Z,4.83
2019-03-24T13:41:43.091Z,3.27
2019-03-24T13:46:47.639Z,2.40
2019-03-24T13:51:52.524Z,3.07
2019-03-24T13:56:54.914Z,2.73
2019-03-24T14:01:57.118Z,2.30
2019-03-24T14:06:59.319Z,3.00
2019-03-24T14:12:02.048Z,2.60
2019-03-24T14:17:05.969Z,3.73
2019-03-24T14:22:09.020Z,2.60
2019-03-24T14:27:11.633Z,2.40
2019-03-24T14:32:14.057Z,2.50
2019-03-24T14:37:16.174Z,2.60
2019-03-24T14:42:18.645Z,2.90
2019-03-24T14:47:20.830Z,2.80
2019-03-24T14:52:22.974Z,2.33
2019-03-24T14:57:25.279Z,2.80
2019-03-24T15:02:27.682Z,2.83
2019-03-24T15:07:29.933Z,3.07
2019-03-24T15:12:32.209Z,2.80
2019-03-24T15:17:34.546Z,3.37
2019-03-24T15:22:37.346Z,3.00
2019-03-24T15:27:40.770Z,2.53
2019-03-24T15:32:43.383Z,2.67
2019-03-24T15:37:45.529Z,3.30
2019-03-24T15:42:48.698Z,2.83
2019-03-24T15:47:51.330Z,2.60
2019-03-24T15:52:53.499Z,3.20
2019-03-24T15:57:55.703Z,3.00
2019-03-24T16:03:02.188Z,3.00
2019-03-24T16:08:04.432Z,2.87
2019-03-24T16:13:06.724Z,4.13
2019-03-24T16:18:15.682Z,2.90
2019-03-24T16:23:18.670Z,3.00
2019-03-24T16:28:20.813Z,3.10
2019-03-24T16:33:23.878Z,3.87
2019-03-24T16:38:28.100Z,3.50
2019-03-24T16:43:31.150Z,3.40
2019-03-24T16:48:36.939Z,4.50
2019-03-24T16:53:37.613Z,4.70
2019-03-24T16:58:39.879Z,4.30
2019-03-24T17:03:48.584Z,4.47
2019-03-24T17:08:51.976Z,4.50
2019-03-24T17:13:54.437Z,4.00
2019-03-24T17:18:56.592Z,4.40
2019-03-24T17:24:01.720Z,5.03
2019-03-24T17:29:04.077Z,4.13
2019-03-24T17:34:06.472Z,4.03
2019-03-24T17:39:09.028Z,3.93
2019-03-24T17:44:12.822Z,4.83
2019-03-24T17:49:15.308Z,4.10
2019-03-24T17:54:18.484Z,6.03
2019-03-24T17:59:21.628Z,5.07
2019-03-24T18:04:27.400Z,4.77
2019-03-24T18:09:32.296Z,4.00
2019-03-24T18:14:34.905Z,4.95
2019-03-24T18:19:38.695Z,4.50
2019-03-24T18:24:42.669Z,7.90
2019-03-24T18:29:45.990Z,7.53
2019-03-24T18:35:06.855Z,5.47
2019-03-24T18:40:12.038Z,4.30
2019-03-24T18:45:23.425Z,4.20
2019-03-24T18:50:25.626Z,4.20
2019-03-24T18:55:27.989Z,4.60
2019-03-24T19:00:56.139Z,4.87
2019-03-24T19:06:04.660Z,4.93
2019-03-24T19:11:13.441Z,4.70
2019-03-24T19:16:15.790Z,4.60
2019-03-24T19:21:24.414Z,3.70
2019-03-24T19:26:26.787Z,4.20
2019-03-24T19:31:35.400Z,3.50
2019-03-24T19:36:38.715Z,4.77
2019-03-24T19:41:41.503Z,3.87
2019-03-24T19:46:47.044Z,4.23
2019-03-24T19:51:50.664Z,4.00
2019-03-24T19:56:52.921Z,3.53
2019-03-24T20:01:58.449Z,3.90
2019-03-24T20:07:01.115Z,3.80
2019-03-24T20:12:03.757Z,3.70
2019-03-24T20:17:06.013Z,3.90
2019-03-24T20:22:09.703Z,3.97
2019-03-24T20:27:13.990Z,3.50
2019-03-24T20:32:18.462Z,4.33
2019-03-24T20:37:20.874Z,5.30
2019-03-24T20:42:26.556Z,4.30
2019-03-24T20:47:32.111Z,4.97
2019-03-24T20:52:34.620Z,4.73
2019-03-24T20:57:37.486Z,4.67
2019-03-24T21:02:39.866Z,4.13
2019-03-24T21:07:43.195Z,3.73
2019-03-24T21:12:50.004Z,5.33
2019-03-24T21:17:52.602Z,3.67
2019-03-24T21:22:55.780Z,3.30
2019-03-24T21:27:58.159Z,3.17
2019-03-24T21:33:00.475Z,3.47
2019-03-24T21:38:02.784Z,3.30
2019-03-24T21:43:06.649Z,2.93
2019-03-24T21:48:09.303Z,2.57
2019-03-24T21:53:11.686Z,2.50
2019-03-24T21:58:14.192Z,2.67
2019-03-24T22:03:18.293Z,2.97
2019-03-24T22:08:20.595Z,2.60
2019-03-24T22:13:23.043Z,3.27
2019-03-24T22:18:26.477Z,2.90
2019-03-24T22:23:28.776Z,2.83
2019-03-24T22:28:31.089Z,3.10
2019-03-24T22:33:33.310Z,3.80
2019-03-24T22:38:35.586Z,4.63
2019-03-24T22:43:38.075Z,3.07
2019-03-24T22:48:40.315Z,3.67
2019-03-24T22:53:43.023Z,3.70
2019-03-24T22:58:46.473Z,3.40
2019-03-24T23:03:49.109Z,3.87
2019-03-24T23:08:52.142Z,4.03
2019-03-24T23:13:54.484Z,3.90
2019-03-24T23:18:56.755Z,4.13
2019-03-24T23:23:58.966Z,4.13
2019-03-24T23:29:01.390Z,3.87
2019-03-24T23:34:03.810Z,4.10
2019-03-24T23:39:06.370Z,4.23
2019-03-24T23:44:09.418Z,5.00
2019-03-24T23:49:12.205Z,5.40
2019-03-24T23:54:26.193Z,4.70
2019-03-24T23:59:18.838Z,5.47
